sensor_id;sensor_type;location;lat;lon;timestamp;P1;durP1;ratioP1;P2;durP2;ratioP2
53833;SDS011;39735;51.432;5.482;2023-05-25T00:02:17;23.35;;;6.82;;
53833;SDS011;39735;51.432;5.482;2023-05-25T00:05:41;22.88;;;7.72;;
53833;SDS011;39735;51.432;5.482;2023-05-25T00:09:06;35.47;;;8.00;;
53833;SDS011;39735;51.432;5.482;2023-05-25T00:12:30;22.58;;;8.93;;
53833;SDS011;39735;51.432;5.482;2023-05-25T00:15:54;10.73;;;4.72;;
53833;SDS011;39735;51.432;5.482;2023-05-25T00:19:19;22.40;;;8.88;;
53833;SDS011;39735;51.432;5.482;2023-05-25T00:22:43;23.63;;;8.45;;
53833;SDS011;39735;51.432;5.482;2023-05-25T00:26:07;36.70;;;8.13;;
53833;SDS011;39735;51.432;5.482;2023-05-25T00:29:31;22.40;;;7.85;;
53833;SDS011;39735;51.432;5.482;2023-05-25T00:32:55;28.02;;;6.53;;
53833;SDS011;39735;51.432;5.482;2023-05-25T00:36:19;16.38;;;5.97;;
53833;SDS011;39735;51.432;5.482;2023-05-25T00:39:43;30.15;;;8.07;;
53833;SDS011;39735;51.432;5.482;2023-05-25T00:43:07;30.52;;;6.65;;
53833;SDS011;39735;51.432;5.482;2023-05-25T00:46:32;35.13;;;8.25;;
53833;SDS011;39735;51.432;5.482;2023-05-25T00:49:57;16.63;;;6.93;;
53833;SDS011;39735;51.432;5.482;2023-05-25T00:53:22;21.65;;;6.38;;
53833;SDS011;39735;51.432;5.482;2023-05-25T00:56:49;17.50;;;5.43;;
53833;SDS011;39735;51.432;5.482;2023-05-25T01:00:13;30.85;;;6.35;;
53833;SDS011;39735;51.432;5.482;2023-05-25T01:03:40;15.35;;;6.75;;
53833;SDS011;39735;51.432;5.482;2023-05-25T01:07:12;24.45;;;6.13;;
53833;SDS011;39735;51.432;5.482;2023-05-25T01:10:37;19.98;;;7.38;;
53833;SDS011;39735;51.432;5.482;2023-05-25T01:14:03;22.73;;;6.90;;
53833;SDS011;39735;51.432;5.482;2023-05-25T01:17:28;26.05;;;6.60;;
53833;SDS011;39735;51.432;5.482;2023-05-25T01:21:03;32.00;;;7.47;;
53833;SDS011;39735;51.432;5.482;2023-05-25T01:24:49;21.40;;;8.10;;
53833;SDS011;39735;51.432;5.482;2023-05-25T01:28:24;14.00;;;6.00;;
53833;SDS011;39735;51.432;5.482;2023-05-25T01:31:50;26.85;;;4.75;;
53833;SDS011;39735;51.432;5.482;2023-05-25T01:35:15;21.20;;;6.63;;
53833;SDS011;39735;51.432;5.482;2023-05-25T01:38:39;32.42;;;6.07;;
53833;SDS011;39735;51.432;5.482;2023-05-25T01:42:04;20.93;;;6.20;;
53833;SDS011;39735;51.432;5.482;2023-05-25T01:45:28;28.75;;;7.30;;
53833;SDS011;39735;51.432;5.482;2023-05-25T01:52:50;35.30;;;7.70;;
53833;SDS011;39735;51.432;5.482;2023-05-25T01:56:27;21.90;;;6.18;;
53833;SDS011;39735;51.432;5.482;2023-05-25T01:59:53;28.50;;;6.03;;
53833;SDS011;39735;51.432;5.482;2023-05-25T02:03:19;30.33;;;7.68;;
53833;SDS011;39735;51.432;5.482;2023-05-25T02:06:46;14.52;;;6.20;;
53833;SDS011;39735;51.432;5.482;2023-05-25T02:10:10;28.80;;;5.95;;
53833;SDS011;39735;51.432;5.482;2023-05-25T02:13:36;16.88;;;6.38;;
53833;SDS011;39735;51.432;5.482;2023-05-25T02:17:00;21.83;;;6.32;;
53833;SDS011;39735;51.432;5.482;2023-05-25T02:20:24;23.52;;;5.97;;
53833;SDS011;39735;51.432;5.482;2023-05-25T02:23:48;21.60;;;6.07;;
53833;SDS011;39735;51.432;5.482;2023-05-25T02:27:13;17.58;;;6.57;;
53833;SDS011;39735;51.432;5.482;2023-05-25T02:30:37;21.05;;;5.97;;
53833;SDS011;39735;51.432;5.482;2023-05-25T02:34:01;21.58;;;7.22;;
53833;SDS011;39735;51.432;5.482;2023-05-25T02:37:25;16.35;;;5.00;;
53833;SDS011;39735;51.432;5.482;2023-05-25T02:40:49;29.45;;;6.95;;
53833;SDS011;39735;51.432;5.482;2023-05-25T02:44:13;15.85;;;5.85;;
53833;SDS011;39735;51.432;5.482;2023-05-25T02:47:37;22.20;;;6.50;;
53833;SDS011;39735;51.432;5.482;2023-05-25T02:51:00;26.80;;;6.90;;
53833;SDS011;39735;51.432;5.482;2023-05-25T02:54:24;25.95;;;6.60;;
53833;SDS011;39735;51.432;5.482;2023-05-25T02:57:50;27.80;;;7.55;;
53833;SDS011;39735;51.432;5.482;2023-05-25T03:01:13;29.67;;;6.57;;
53833;SDS011;39735;51.432;5.482;2023-05-25T03:04:37;45.92;;;6.78;;
53833;SDS011;39735;51.432;5.482;2023-05-25T03:08:02;18.67;;;5.97;;
53833;SDS011;39735;51.432;5.482;2023-05-25T03:14:52;19.13;;;5.95;;
53833;SDS011;39735;51.432;5.482;2023-05-25T03:18:16;27.67;;;7.00;;
53833;SDS011;39735;51.432;5.482;2023-05-25T03:21:40;18.83;;;5.22;;
53833;SDS011;39735;51.432;5.482;2023-05-25T03:25:04;25.27;;;6.45;;
53833;SDS011;39735;51.432;5.482;2023-05-25T03:28:28;33.83;;;8.55;;
53833;SDS011;39735;51.432;5.482;2023-05-25T03:31:51;16.27;;;5.65;;
53833;SDS011;39735;51.432;5.482;2023-05-25T03:35:16;30.85;;;5.97;;
53833;SDS011;39735;51.432;5.482;2023-05-25T03:38:42;25.70;;;7.22;;
53833;SDS011;39735;51.432;5.482;2023-05-25T03:42:06;15.48;;;5.00;;
53833;SDS011;39735;51.432;5.482;2023-05-25T03:45:30;20.90;;;6.30;;
53833;SDS011;39735;51.432;5.482;2023-05-25T03:48:54;13.23;;;4.38;;
53833;SDS011;39735;51.432;5.482;2023-05-25T03:52:18;15.35;;;5.43;;
53833;SDS011;39735;51.432;5.482;2023-05-25T03:55:42;26.15;;;6.95;;
53833;SDS011;39735;51.432;5.482;2023-05-25T03:59:06;23.63;;;6.38;;
53833;SDS011;39735;51.432;5.482;2023-05-25T04:02:30;15.95;;;8.23;;
53833;SDS011;39735;51.432;5.482;2023-05-25T04:05:56;29.42;;;7.88;;
53833;SDS011;39735;51.432;5.482;2023-05-25T04:09:20;19.48;;;6.00;;
53833;SDS011;39735;51.432;5.482;2023-05-25T04:12:44;41.92;;;7.85;;
53833;SDS011;39735;51.432;5.482;2023-05-25T04:16:08;15.98;;;5.88;;
53833;SDS011;39735;51.432;5.482;2023-05-25T04:19:32;31.08;;;6.95;;
53833;SDS011;39735;51.432;5.482;2023-05-25T04:22:56;19.85;;;7.13;;
53833;SDS011;39735;51.432;5.482;2023-05-25T04:26:20;31.70;;;9.20;;
53833;SDS011;39735;51.432;5.482;2023-05-25T04:29:44;17.65;;;6.78;;
53833;SDS011;39735;51.432;5.482;2023-05-25T04:33:08;33.53;;;8.88;;
53833;SDS011;39735;51.432;5.482;2023-05-25T04:36:33;27.85;;;7.50;;
53833;SDS011;39735;51.432;5.482;2023-05-25T04:39:57;13.30;;;6.45;;
53833;SDS011;39735;51.432;5.482;2023-05-25T04:43:22;18.70;;;6.25;;
53833;SDS011;39735;51.432;5.482;2023-05-25T04:46:46;24.95;;;6.13;;
53833;SDS011;39735;51.432;5.482;2023-05-25T04:50:11;26.63;;;9.33;;
53833;SDS011;39735;51.432;5.482;2023-05-25T04:53:35;36.75;;;8.95;;
53833;SDS011;39735;51.432;5.482;2023-05-25T04:57:00;23.60;;;7.13;;
53833;SDS011;39735;51.432;5.482;2023-05-25T05:00:24;28.73;;;7.65;;
53833;SDS011;39735;51.432;5.482;2023-05-25T05:03:50;15.38;;;5.72;;
53833;SDS011;39735;51.432;5.482;2023-05-25T05:07:18;22.95;;;9.27;;
53833;SDS011;39735;51.432;5.482;2023-05-25T05:10:42;18.77;;;8.18;;
53833;SDS011;39735;51.432;5.482;2023-05-25T05:14:06;35.20;;;8.00;;
53833;SDS011;39735;51.432;5.482;2023-05-25T05:17:30;23.48;;;6.32;;
53833;SDS011;39735;51.432;5.482;2023-05-25T05:20:54;24.73;;;7.40;;
53833;SDS011;39735;51.432;5.482;2023-05-25T05:24:18;22.25;;;8.35;;
53833;SDS011;39735;51.432;5.482;2023-05-25T05:27:42;21.27;;;7.18;;
53833;SDS011;39735;51.432;5.482;2023-05-25T05:31:06;27.50;;;8.10;;
53833;SDS011;39735;51.432;5.482;2023-05-25T05:34:30;19.02;;;7.40;;
53833;SDS011;39735;51.432;5.482;2023-05-25T05:37:55;25.38;;;6.38;;
53833;SDS011;39735;51.432;5.482;2023-05-25T05:41:19;29.13;;;8.25;;
53833;SDS011;39735;51.432;5.482;2023-05-25T05:44:43;23.23;;;8.70;;
53833;SDS011;39735;51.432;5.482;2023-05-25T05:48:07;39.97;;;9.82;;
53833;SDS011;39735;51.432;5.482;2023-05-25T05:51:31;30.70;;;8.95;;
53833;SDS011;39735;51.432;5.482;2023-05-25T05:54:55;26.00;;;8.75;;
53833;SDS011;39735;51.432;5.482;2023-05-25T05:58:23;31.70;;;7.43;;
53833;SDS011;39735;51.432;5.482;2023-05-25T06:01:47;22.55;;;6.10;;
53833;SDS011;39735;51.432;5.482;2023-05-25T06:05:11;26.83;;;8.07;;
53833;SDS011;39735;51.432;5.482;2023-05-25T06:08:34;19.33;;;7.25;;
53833;SDS011;39735;51.432;5.482;2023-05-25T06:11:58;27.10;;;8.75;;
53833;SDS011;39735;51.432;5.482;2023-05-25T06:15:22;18.75;;;6.18;;
53833;SDS011;39735;51.432;5.482;2023-05-25T06:18:46;22.05;;;7.32;;
53833;SDS011;39735;51.432;5.482;2023-05-25T06:22:10;21.85;;;6.25;;
53833;SDS011;39735;51.432;5.482;2023-05-25T06:29:00;27.10;;;6.55;;
53833;SDS011;39735;51.432;5.482;2023-05-25T06:32:23;21.13;;;5.82;;
53833;SDS011;39735;51.432;5.482;2023-05-25T06:35:48;38.00;;;8.85;;
53833;SDS011;39735;51.432;5.482;2023-05-25T06:39:12;20.38;;;6.20;;
53833;SDS011;39735;51.432;5.482;2023-05-25T06:42:36;33.00;;;8.95;;
53833;SDS011;39735;51.432;5.482;2023-05-25T06:45:59;28.85;;;8.23;;
53833;SDS011;39735;51.432;5.482;2023-05-25T06:49:23;19.10;;;6.22;;
53833;SDS011;39735;51.432;5.482;2023-05-25T06:52:47;25.73;;;6.82;;
53833;SDS011;39735;51.432;5.482;2023-05-25T06:56:11;22.33;;;4.88;;
53833;SDS011;39735;51.432;5.482;2023-05-25T06:59:35;19.25;;;7.03;;
53833;SDS011;39735;51.432;5.482;2023-05-25T07:02:59;11.45;;;4.65;;
53833;SDS011;39735;51.432;5.482;2023-05-25T07:06:23;19.80;;;5.75;;
53833;SDS011;39735;51.432;5.482;2023-05-25T07:09:46;19.13;;;6.05;;
53833;SDS011;39735;51.432;5.482;2023-05-25T07:13:10;21.48;;;6.95;;
53833;SDS011;39735;51.432;5.482;2023-05-25T07:16:34;27.55;;;6.97;;
53833;SDS011;39735;51.432;5.482;2023-05-25T07:20:00;11.02;;;5.43;;
53833;SDS011;39735;51.432;5.482;2023-05-25T07:23:24;28.00;;;7.53;;
53833;SDS011;39735;51.432;5.482;2023-05-25T07:26:48;18.17;;;5.60;;
53833;SDS011;39735;51.432;5.482;2023-05-25T07:30:12;10.65;;;5.63;;
53833;SDS011;39735;51.432;5.482;2023-05-25T07:33:36;8.25;;;4.63;;
53833;SDS011;39735;51.432;5.482;2023-05-25T07:37:00;10.43;;;5.22;;
53833;SDS011;39735;51.432;5.482;2023-05-25T07:40:25;20.40;;;6.53;;
53833;SDS011;39735;51.432;5.482;2023-05-25T07:43:50;12.18;;;5.70;;
53833;SDS011;39735;51.432;5.482;2023-05-25T07:47:14;10.77;;;4.68;;
53833;SDS011;39735;51.432;5.482;2023-05-25T07:50:38;14.30;;;5.45;;
53833;SDS011;39735;51.432;5.482;2023-05-25T07:54:01;17.75;;;4.65;;
53833;SDS011;39735;51.432;5.482;2023-05-25T07:57:25;18.02;;;5.28;;
53833;SDS011;39735;51.432;5.482;2023-05-25T08:00:49;20.42;;;5.15;;
53833;SDS011;39735;51.432;5.482;2023-05-25T08:04:13;21.80;;;6.00;;
53833;SDS011;39735;51.432;5.482;2023-05-25T08:07:37;23.33;;;4.78;;
53833;SDS011;39735;51.432;5.482;2023-05-25T08:11:01;17.35;;;4.47;;
53833;SDS011;39735;51.432;5.482;2023-05-25T08:14:25;15.20;;;4.32;;
53833;SDS011;39735;51.432;5.482;2023-05-25T08:17:50;14.70;;;5.72;;
53833;SDS011;39735;51.432;5.482;2023-05-25T08:21:14;15.88;;;4.63;;
53833;SDS011;39735;51.432;5.482;2023-05-25T08:24:38;10.95;;;4.65;;
53833;SDS011;39735;51.432;5.482;2023-05-25T08:28:02;10.90;;;4.93;;
53833;SDS011;39735;51.432;5.482;2023-05-25T08:31:26;18.98;;;6.07;;
53833;SDS011;39735;51.432;5.482;2023-05-25T08:34:50;6.47;;;4.43;;
53833;SDS011;39735;51.432;5.482;2023-05-25T08:41:41;17.27;;;5.82;;
53833;SDS011;39735;51.432;5.482;2023-05-25T08:45:11;19.10;;;5.32;;
53833;SDS011;39735;51.432;5.482;2023-05-25T08:48:36;12.32;;;6.05;;
53833;SDS011;39735;51.432;5.482;2023-05-25T08:52:02;11.13;;;4.88;;
53833;SDS011;39735;51.432;5.482;2023-05-25T08:55:26;26.50;;;7.20;;
53833;SDS011;39735;51.432;5.482;2023-05-25T08:58:57;13.23;;;6.13;;
53833;SDS011;39735;51.432;5.482;2023-05-25T09:05:58;19.58;;;5.68;;
53833;SDS011;39735;51.432;5.482;2023-05-25T09:09:22;19.23;;;6.28;;
53833;SDS011;39735;51.432;5.482;2023-05-25T09:12:46;26.55;;;6.25;;
53833;SDS011;39735;51.432;5.482;2023-05-25T09:16:11;22.35;;;5.25;;
53833;SDS011;39735;51.432;5.482;2023-05-25T09:19:36;8.95;;;4.20;;
53833;SDS011;39735;51.432;5.482;2023-05-25T09:23:00;24.88;;;4.82;;
53833;SDS011;39735;51.432;5.482;2023-05-25T09:26:24;12.32;;;5.72;;
53833;SDS011;39735;51.432;5.482;2023-05-25T09:29:49;25.73;;;5.60;;
53833;SDS011;39735;51.432;5.482;2023-05-25T09:33:14;19.08;;;5.13;;
53833;SDS011;39735;51.432;5.482;2023-05-25T09:36:42;27.35;;;7.15;;
53833;SDS011;39735;51.432;5.482;2023-05-25T09:40:06;18.30;;;5.25;;
53833;SDS011;39735;51.432;5.482;2023-05-25T09:43:30;26.95;;;6.55;;
53833;SDS011;39735;51.432;5.482;2023-05-25T09:46:54;26.88;;;6.15;;
53833;SDS011;39735;51.432;5.482;2023-05-25T09:50:22;11.80;;;5.15;;
53833;SDS011;39735;51.432;5.482;2023-05-25T09:53:46;22.38;;;5.40;;
53833;SDS011;39735;51.432;5.482;2023-05-25T09:57:10;29.35;;;7.40;;
53833;SDS011;39735;51.432;5.482;2023-05-25T10:00:34;30.23;;;7.00;;
53833;SDS011;39735;51.432;5.482;2023-05-25T10:03:59;19.23;;;5.45;;
53833;SDS011;39735;51.432;5.482;2023-05-25T10:07:23;16.95;;;4.53;;
53833;SDS011;39735;51.432;5.482;2023-05-25T10:10:49;26.50;;;6.68;;
53833;SDS011;39735;51.432;5.482;2023-05-25T10:14:16;24.33;;;4.85;;
53833;SDS011;39735;51.432;5.482;2023-05-25T10:17:44;14.80;;;6.20;;
53833;SDS011;39735;51.432;5.482;2023-05-25T10:21:15;27.85;;;5.03;;
53833;SDS011;39735;51.432;5.482;2023-05-25T10:28:34;22.45;;;6.10;;
53833;SDS011;39735;51.432;5.482;2023-05-25T10:31:59;14.95;;;4.95;;
53833;SDS011;39735;51.432;5.482;2023-05-25T10:35:23;15.73;;;5.55;;
53833;SDS011;39735;51.432;5.482;2023-05-25T10:38:47;26.42;;;5.85;;
53833;SDS011;39735;51.432;5.482;2023-05-25T10:42:13;12.88;;;4.30;;
53833;SDS011;39735;51.432;5.482;2023-05-25T10:45:38;15.43;;;6.45;;
53833;SDS011;39735;51.432;5.482;2023-05-25T10:49:02;15.98;;;5.40;;
53833;SDS011;39735;51.432;5.482;2023-05-25T10:52:30;24.15;;;7.05;;
53833;SDS011;39735;51.432;5.482;2023-05-25T10:56:01;24.42;;;6.05;;
53833;SDS011;39735;51.432;5.482;2023-05-25T10:59:52;11.18;;;4.75;;
53833;SDS011;39735;51.432;5.482;2023-05-25T11:07:07;28.73;;;6.35;;
53833;SDS011;39735;51.432;5.482;2023-05-25T11:14:31;13.73;;;4.20;;
53833;SDS011;39735;51.432;5.482;2023-05-25T11:17:58;23.75;;;4.38;;
53833;SDS011;39735;51.432;5.482;2023-05-25T11:25:03;11.80;;;4.18;;
53833;SDS011;39735;51.432;5.482;2023-05-25T11:28:52;25.20;;;6.32;;
53833;SDS011;39735;51.432;5.482;2023-05-25T11:32:17;18.90;;;5.63;;
53833;SDS011;39735;51.432;5.482;2023-05-25T11:35:45;19.58;;;4.93;;
53833;SDS011;39735;51.432;5.482;2023-05-25T11:39:09;17.85;;;4.93;;
53833;SDS011;39735;51.432;5.482;2023-05-25T11:42:34;15.10;;;4.97;;
53833;SDS011;39735;51.432;5.482;2023-05-25T11:45:58;18.35;;;5.38;;
53833;SDS011;39735;51.432;5.482;2023-05-25T11:49:25;22.45;;;5.40;;
53833;SDS011;39735;51.432;5.482;2023-05-25T11:52:49;21.70;;;4.97;;
53833;SDS011;39735;51.432;5.482;2023-05-25T11:56:14;19.02;;;5.35;;
53833;SDS011;39735;51.432;5.482;2023-05-25T11:59:39;31.10;;;5.38;;
53833;SDS011;39735;51.432;5.482;2023-05-25T12:03:02;28.80;;;5.20;;
53833;SDS011;39735;51.432;5.482;2023-05-25T12:06:32;19.25;;;4.30;;
53833;SDS011;39735;51.432;5.482;2023-05-25T12:10:06;18.42;;;5.97;;
53833;SDS011;39735;51.432;5.482;2023-05-25T12:13:30;27.38;;;6.47;;
53833;SDS011;39735;51.432;5.482;2023-05-25T12:16:54;26.65;;;6.32;;
53833;SDS011;39735;51.432;5.482;2023-05-25T12:20:18;22.67;;;6.88;;
53833;SDS011;39735;51.432;5.482;2023-05-25T12:23:42;39.25;;;7.82;;
53833;SDS011;39735;51.432;5.482;2023-05-25T12:27:16;25.08;;;6.03;;
53833;SDS011;39735;51.432;5.482;2023-05-25T12:30:41;18.48;;;6.28;;
53833;SDS011;39735;51.432;5.482;2023-05-25T12:34:06;18.17;;;5.22;;
53833;SDS011;39735;51.432;5.482;2023-05-25T12:37:31;19.77;;;5.88;;
53833;SDS011;39735;51.432;5.482;2023-05-25T12:41:04;21.20;;;6.75;;
53833;SDS011;39735;51.432;5.482;2023-05-25T12:44:31;29.92;;;7.50;;
53833;SDS011;39735;51.432;5.482;2023-05-25T12:51:18;19.10;;;6.22;;
53833;SDS011;39735;51.432;5.482;2023-05-25T12:58:44;18.98;;;6.35;;
53833;SDS011;39735;51.432;5.482;2023-05-25T13:02:09;18.95;;;6.68;;
53833;SDS011;39735;51.432;5.482;2023-05-25T13:05:35;16.17;;;5.93;;
53833;SDS011;39735;51.432;5.482;2023-05-25T13:08:59;25.60;;;6.60;;
53833;SDS011;39735;51.432;5.482;2023-05-25T13:12:23;18.25;;;6.15;;
53833;SDS011;39735;51.432;5.482;2023-05-25T13:15:47;14.02;;;6.55;;
53833;SDS011;39735;51.432;5.482;2023-05-25T13:19:11;20.58;;;6.72;;
53833;SDS011;39735;51.432;5.482;2023-05-25T13:22:37;21.35;;;6.30;;
53833;SDS011;39735;51.432;5.482;2023-05-25T13:26:01;24.52;;;6.18;;
53833;SDS011;39735;51.432;5.482;2023-05-25T13:29:25;18.73;;;8.88;;
53833;SDS011;39735;51.432;5.482;2023-05-25T13:32:50;24.10;;;5.63;;
53833;SDS011;39735;51.432;5.482;2023-05-25T13:36:14;19.30;;;6.60;;
53833;SDS011;39735;51.432;5.482;2023-05-25T13:39:38;18.48;;;5.93;;
53833;SDS011;39735;51.432;5.482;2023-05-25T13:43:01;12.00;;;5.20;;
53833;SDS011;39735;51.432;5.482;2023-05-25T13:46:26;10.45;;;4.72;;
53833;SDS011;39735;51.432;5.482;2023-05-25T13:49:50;22.55;;;5.03;;
53833;SDS011;39735;51.432;5.482;2023-05-25T13:53:14;22.08;;;5.45;;
53833;SDS011;39735;51.432;5.482;2023-05-25T13:56:38;15.10;;;7.00;;
53833;SDS011;39735;51.432;5.482;2023-05-25T14:00:02;10.15;;;4.85;;
53833;SDS011;39735;51.432;5.482;2023-05-25T14:03:27;15.87;;;5.93;;
53833;SDS011;39735;51.432;5.482;2023-05-25T14:06:50;18.48;;;5.43;;
53833;SDS011;39735;51.432;5.482;2023-05-25T14:10:15;17.70;;;5.25;;
53833;SDS011;39735;51.432;5.482;2023-05-25T14:13:39;20.38;;;6.43;;
53833;SDS011;39735;51.432;5.482;2023-05-25T14:17:03;13.13;;;5.78;;
53833;SDS011;39735;51.432;5.482;2023-05-25T14:20:27;11.55;;;3.92;;
53833;SDS011;39735;51.432;5.482;2023-05-25T14:23:51;15.10;;;5.05;;
53833;SDS011;39735;51.432;5.482;2023-05-25T14:27:15;12.35;;;4.25;;
53833;SDS011;39735;51.432;5.482;2023-05-25T14:30:39;22.13;;;4.63;;
53833;SDS011;39735;51.432;5.482;2023-05-25T14:34:04;14.10;;;5.03;;
53833;SDS011;39735;51.432;5.482;2023-05-25T14:37:27;13.43;;;4.90;;
53833;SDS011;39735;51.432;5.482;2023-05-25T14:40:51;24.35;;;5.32;;
53833;SDS011;39735;51.432;5.482;2023-05-25T14:44:15;12.55;;;4.10;;
53833;SDS011;39735;51.432;5.482;2023-05-25T14:47:39;17.23;;;4.50;;
53833;SDS011;39735;51.432;5.482;2023-05-25T14:51:03;10.82;;;4.82;;
53833;SDS011;39735;51.432;5.482;2023-05-25T14:54:27;18.23;;;3.95;;
53833;SDS011;39735;51.432;5.482;2023-05-25T14:57:51;27.98;;;6.80;;
53833;SDS011;39735;51.432;5.482;2023-05-25T15:01:15;14.52;;;4.68;;
53833;SDS011;39735;51.432;5.482;2023-05-25T15:04:39;14.80;;;4.78;;
53833;SDS011;39735;51.432;5.482;2023-05-25T15:08:03;14.18;;;5.40;;
53833;SDS011;39735;51.432;5.482;2023-05-25T15:11:27;18.30;;;6.75;;
53833;SDS011;39735;51.432;5.482;2023-05-25T15:14:51;10.20;;;4.72;;
53833;SDS011;39735;51.432;5.482;2023-05-25T15:18:21;17.38;;;4.43;;
53833;SDS011;39735;51.432;5.482;2023-05-25T15:21:44;11.38;;;4.80;;
53833;SDS011;39735;51.432;5.482;2023-05-25T15:25:09;22.40;;;6.47;;
53833;SDS011;39735;51.432;5.482;2023-05-25T15:28:35;16.60;;;5.65;;
53833;SDS011;39735;51.432;5.482;2023-05-25T15:31:59;10.60;;;4.95;;
53833;SDS011;39735;51.432;5.482;2023-05-25T15:35:23;16.42;;;5.03;;
53833;SDS011;39735;51.432;5.482;2023-05-25T15:38:47;21.92;;;6.68;;
53833;SDS011;39735;51.432;5.482;2023-05-25T15:42:11;13.23;;;6.55;;
53833;SDS011;39735;51.432;5.482;2023-05-25T15:45:34;23.90;;;5.63;;
53833;SDS011;39735;51.432;5.482;2023-05-25T15:48:59;9.13;;;3.83;;
53833;SDS011;39735;51.432;5.482;2023-05-25T15:52:23;19.52;;;4.97;;
53833;SDS011;39735;51.432;5.482;2023-05-25T15:55:47;13.18;;;4.32;;
53833;SDS011;39735;51.432;5.482;2023-05-25T15:59:11;15.07;;;5.07;;
53833;SDS011;39735;51.432;5.482;2023-05-25T16:02:35;18.38;;;4.45;;
53833;SDS011;39735;51.432;5.482;2023-05-25T16:06:00;13.95;;;3.53;;
53833;SDS011;39735;51.432;5.482;2023-05-25T16:09:24;16.02;;;5.72;;
53833;SDS011;39735;51.432;5.482;2023-05-25T16:12:48;22.75;;;5.53;;
53833;SDS011;39735;51.432;5.482;2023-05-25T16:16:12;26.48;;;6.63;;
53833;SDS011;39735;51.432;5.482;2023-05-25T16:19:35;16.38;;;6.28;;
53833;SDS011;39735;51.432;5.482;2023-05-25T16:22:59;20.10;;;5.05;;
53833;SDS011;39735;51.432;5.482;2023-05-25T16:26:23;22.95;;;7.70;;
53833;SDS011;39735;51.432;5.482;2023-05-25T16:29:47;28.17;;;5.15;;
53833;SDS011;39735;51.432;5.482;2023-05-25T16:33:11;19.98;;;5.93;;
53833;SDS011;39735;51.432;5.482;2023-05-25T16:36:35;16.38;;;5.70;;
53833;SDS011;39735;51.432;5.482;2023-05-25T16:39:59;14.32;;;5.93;;
53833;SDS011;39735;51.432;5.482;2023-05-25T16:43:23;23.17;;;7.05;;
53833;SDS011;39735;51.432;5.482;2023-05-25T16:46:47;13.55;;;4.53;;
53833;SDS011;39735;51.432;5.482;2023-05-25T16:50:11;17.58;;;6.13;;
53833;SDS011;39735;51.432;5.482;2023-05-25T16:53:39;22.42;;;6.63;;
53833;SDS011;39735;51.432;5.482;2023-05-25T16:57:03;13.90;;;5.35;;
53833;SDS011;39735;51.432;5.482;2023-05-25T17:00:27;21.90;;;6.28;;
53833;SDS011;39735;51.432;5.482;2023-05-25T17:03:51;30.25;;;8.90;;
53833;SDS011;39735;51.432;5.482;2023-05-25T17:07:15;24.98;;;5.90;;
53833;SDS011;39735;51.432;5.482;2023-05-25T17:10:39;26.80;;;6.07;;
53833;SDS011;39735;51.432;5.482;2023-05-25T17:14:03;24.88;;;5.57;;
53833;SDS011;39735;51.432;5.482;2023-05-25T17:17:27;15.70;;;6.00;;
53833;SDS011;39735;51.432;5.482;2023-05-25T17:20:51;26.02;;;5.38;;
53833;SDS011;39735;51.432;5.482;2023-05-25T17:24:15;18.05;;;5.45;;
53833;SDS011;39735;51.432;5.482;2023-05-25T17:27:39;14.45;;;6.15;;
53833;SDS011;39735;51.432;5.482;2023-05-25T17:31:03;23.27;;;6.18;;
53833;SDS011;39735;51.432;5.482;2023-05-25T17:34:27;31.45;;;6.63;;
53833;SDS011;39735;51.432;5.482;2023-05-25T17:37:54;19.75;;;6.10;;
53833;SDS011;39735;51.432;5.482;2023-05-25T17:41:17;48.78;;;6.65;;
53833;SDS011;39735;51.432;5.482;2023-05-25T17:44:41;15.32;;;5.97;;
53833;SDS011;39735;51.432;5.482;2023-05-25T17:48:05;27.63;;;5.35;;
53833;SDS011;39735;51.432;5.482;2023-05-25T17:51:29;33.28;;;6.82;;
53833;SDS011;39735;51.432;5.482;2023-05-25T17:58:19;37.78;;;5.68;;
53833;SDS011;39735;51.432;5.482;2023-05-25T18:01:43;21.42;;;6.03;;
53833;SDS011;39735;51.432;5.482;2023-05-25T18:05:06;22.58;;;6.22;;
53833;SDS011;39735;51.432;5.482;2023-05-25T18:08:31;21.42;;;5.35;;
53833;SDS011;39735;51.432;5.482;2023-05-25T18:11:55;34.72;;;9.05;;
53833;SDS011;39735;51.432;5.482;2023-05-25T18:15:18;26.35;;;5.80;;
53833;SDS011;39735;51.432;5.482;2023-05-25T18:18:42;43.58;;;9.70;;
53833;SDS011;39735;51.432;5.482;2023-05-25T18:22:06;19.42;;;5.68;;
53833;SDS011;39735;51.432;5.482;2023-05-25T18:25:32;28.08;;;6.75;;
53833;SDS011;39735;51.432;5.482;2023-05-25T18:28:56;36.70;;;9.35;;
53833;SDS011;39735;51.432;5.482;2023-05-25T18:32:20;32.72;;;6.38;;
53833;SDS011;39735;51.432;5.482;2023-05-25T18:35:44;23.80;;;8.00;;
53833;SDS011;39735;51.432;5.482;2023-05-25T18:39:08;25.60;;;6.15;;
53833;SDS011;39735;51.432;5.482;2023-05-25T18:42:32;32.15;;;6.43;;
53833;SDS011;39735;51.432;5.482;2023-05-25T18:45:56;54.28;;;11.43;;
53833;SDS011;39735;51.432;5.482;2023-05-25T18:49:20;24.30;;;7.05;;
53833;SDS011;39735;51.432;5.482;2023-05-25T18:52:45;44.00;;;9.88;;
53833;SDS011;39735;51.432;5.482;2023-05-25T18:56:09;41.08;;;7.20;;
53833;SDS011;39735;51.432;5.482;2023-05-25T18:59:33;42.70;;;7.93;;
53833;SDS011;39735;51.432;5.482;2023-05-25T19:02:57;23.73;;;7.82;;
53833;SDS011;39735;51.432;5.482;2023-05-25T19:06:21;48.38;;;9.13;;
53833;SDS011;39735;51.432;5.482;2023-05-25T19:09:45;42.78;;;8.75;;
53833;SDS011;39735;51.432;5.482;2023-05-25T19:13:09;38.95;;;7.47;;
53833;SDS011;39735;51.432;5.482;2023-05-25T19:16:33;47.22;;;9.85;;
53833;SDS011;39735;51.432;5.482;2023-05-25T19:19:57;61.40;;;12.20;;
53833;SDS011;39735;51.432;5.482;2023-05-25T19:23:22;56.25;;;11.52;;
53833;SDS011;39735;51.432;5.482;2023-05-25T19:26:46;39.50;;;9.75;;
53833;SDS011;39735;51.432;5.482;2023-05-25T19:30:10;35.15;;;8.02;;
53833;SDS011;39735;51.432;5.482;2023-05-25T19:33:34;46.22;;;9.48;;
53833;SDS011;39735;51.432;5.482;2023-05-25T19:36:58;58.25;;;10.27;;
53833;SDS011;39735;51.432;5.482;2023-05-25T19:40:22;75.03;;;11.02;;
53833;SDS011;39735;51.432;5.482;2023-05-25T19:43:45;39.92;;;7.40;;
53833;SDS011;39735;51.432;5.482;2023-05-25T19:47:10;41.60;;;10.85;;
53833;SDS011;39735;51.432;5.482;2023-05-25T19:50:34;40.42;;;7.78;;
53833;SDS011;39735;51.432;5.482;2023-05-25T19:53:57;41.75;;;9.65;;
53833;SDS011;39735;51.432;5.482;2023-05-25T19:57:21;51.22;;;9.98;;
53833;SDS011;39735;51.432;5.482;2023-05-25T20:00:45;60.00;;;10.20;;
53833;SDS011;39735;51.432;5.482;2023-05-25T20:04:09;44.25;;;9.10;;
53833;SDS011;39735;51.432;5.482;2023-05-25T20:07:34;38.40;;;9.68;;
53833;SDS011;39735;51.432;5.482;2023-05-25T20:11:00;37.42;;;9.80;;
53833;SDS011;39735;51.432;5.482;2023-05-25T20:14:25;49.15;;;10.65;;
53833;SDS011;39735;51.432;5.482;2023-05-25T20:17:48;30.58;;;7.97;;
53833;SDS011;39735;51.432;5.482;2023-05-25T20:21:12;40.90;;;9.20;;
53833;SDS011;39735;51.432;5.482;2023-05-25T20:24:36;48.00;;;9.85;;
53833;SDS011;39735;51.432;5.482;2023-05-25T20:28:00;61.47;;;10.68;;
53833;SDS011;39735;51.432;5.482;2023-05-25T20:31:24;46.05;;;11.90;;
53833;SDS011;39735;51.432;5.482;2023-05-25T20:34:48;35.60;;;8.88;;
53833;SDS011;39735;51.432;5.482;2023-05-25T20:38:12;46.70;;;11.50;;
53833;SDS011;39735;51.432;5.482;2023-05-25T20:41:36;51.47;;;10.18;;
53833;SDS011;39735;51.432;5.482;2023-05-25T20:45:00;49.78;;;8.88;;
53833;SDS011;39735;51.432;5.482;2023-05-25T20:48:24;40.65;;;10.43;;
53833;SDS011;39735;51.432;5.482;2023-05-25T20:51:48;57.05;;;10.85;;
53833;SDS011;39735;51.432;5.482;2023-05-25T20:55:12;62.40;;;11.52;;
53833;SDS011;39735;51.432;5.482;2023-05-25T20:58:36;41.97;;;8.73;;